createdAt,value
2019-05-15T00:01:28.556Z,3.55
2019-05-15T00:03:54.815Z,3.77
2019-05-15T00:06:20.655Z,3.58
2019-05-15T00:08:48.027Z,3.80
2019-05-15T00:11:13.913Z,4.28
2019-05-15T00:13:40.015Z,4.12
2019-05-15T00:16:08.267Z,4.15
2019-05-15T00:18:33.863Z,3.80
2019-05-15T00:21:00.005Z,3.42
2019-05-15T00:23:26.142Z,3.67
2019-05-15T00:25:51.974Z,3.72
2019-05-15T00:28:18.521Z,3.70
2019-05-15T00:30:44.462Z,3.50
2019-05-15T00:33:10.323Z,3.83
2019-05-15T00:35:38.975Z,3.60
2019-05-15T00:38:04.348Z,4.60
2019-05-15T00:40:30.189Z,4.20
2019-05-15T00:42:57.804Z,3.77
2019-05-15T00:45:23.689Z,3.70
2019-05-15T00:47:49.799Z,4.08
2019-05-15T00:50:15.633Z,4.25
2019-05-15T00:52:41.752Z,4.03
2019-05-15T00:55:08.640Z,4.33
2019-05-15T00:57:34.979Z,4.62
2019-05-15T01:00:01.093Z,4.08
2019-05-15T01:02:28.670Z,4.03
2019-05-15T01:04:54.558Z,4.00
2019-05-15T01:07:20.386Z,4.10
2019-05-15T01:09:48.567Z,4.50
2019-05-15T01:12:14.275Z,4.25
2019-05-15T01:14:40.103Z,4.40
2019-05-15T01:17:05.970Z,4.37
2019-05-15T01:19:32.106Z,3.87
2019-05-15T01:21:58.735Z,4.12
2019-05-15T01:24:24.698Z,4.72
2019-05-15T01:26:50.823Z,4.67
2019-05-15T01:29:18.248Z,4.58
2019-05-15T01:31:44.491Z,5.40
2019-05-15T01:34:10.373Z,5.20
2019-05-15T01:36:38.289Z,4.67
2019-05-15T01:39:04.732Z,4.72
2019-05-15T01:41:30.815Z,4.40
2019-05-15T01:43:58.132Z,4.70
2019-05-15T01:46:24.042Z,4.37
2019-05-15T01:48:49.918Z,4.72
2019-05-15T01:51:18.351Z,4.47
2019-05-15T01:53:43.881Z,4.42
2019-05-15T01:56:10.039Z,4.50
2019-05-15T01:58:38.004Z,4.87
2019-05-15T02:01:03.497Z,4.92
2019-05-15T02:03:29.333Z,5.15
2019-05-15T02:05:55.473Z,4.72
2019-05-15T02:08:21.315Z,4.60
2019-05-15T02:10:49.423Z,4.78
2019-05-15T02:13:15.100Z,5.12
2019-05-15T02:15:40.862Z,4.87
2019-05-15T02:18:08.431Z,4.70
2019-05-15T02:20:34.393Z,4.40
2019-05-15T02:23:00.539Z,4.60
2019-05-15T02:25:28.025Z,4.72
2019-05-15T02:27:54.238Z,5.08
2019-05-15T02:30:28.380Z,4.40
2019-05-15T02:32:50.055Z,4.70
2019-05-15T02:35:18.316Z,4.97
2019-05-15T02:37:43.000Z,4.95
2019-05-15T02:40:09.950Z,4.70
2019-05-15T02:42:39.514Z,4.40
2019-05-15T02:45:04.986Z,4.12
2019-05-15T02:47:30.810Z,4.10
2019-05-15T02:49:59.265Z,4.15
2019-05-15T02:52:24.863Z,4.20
2019-05-15T02:54:50.693Z,4.15
2019-05-15T02:57:19.151Z,4.30
2019-05-15T02:59:44.504Z,4.40
2019-05-15T03:02:10.532Z,4.35
2019-05-15T03:04:39.788Z,4.87
2019-05-15T03:07:04.181Z,4.45
2019-05-15T03:09:30.101Z,4.65
2019-05-15T03:11:58.443Z,4.20
2019-05-15T03:14:23.888Z,4.20
2019-05-15T03:16:50.005Z,4.75
2019-05-15T03:19:19.047Z,4.83
2019-05-15T03:21:43.490Z,4.60
2019-05-15T03:24:10.289Z,4.35
2019-05-15T03:26:39.181Z,4.78
2019-05-15T03:29:03.961Z,4.37
2019-05-15T03:31:50.909Z,5.08
2019-05-15T03:34:02.943Z,4.80
2019-05-15T03:36:31.140Z,4.62
2019-05-15T03:38:53.730Z,4.15
2019-05-15T03:41:19.784Z,4.85
2019-05-15T03:43:49.323Z,4.67
2019-05-15T03:46:13.318Z,4.10
2019-05-15T03:48:40.307Z,4.00
2019-05-15T03:51:09.169Z,4.80
2019-05-15T03:53:34.060Z,4.70
2019-05-15T03:55:59.951Z,4.20
2019-05-15T03:58:28.477Z,4.87
2019-05-15T04:00:53.447Z,5.03
2019-05-15T04:03:20.157Z,4.65
2019-05-15T04:05:49.191Z,4.33
2019-05-15T04:08:13.962Z,4.37
2019-05-15T04:10:40.376Z,4.80
2019-05-15T04:13:09.339Z,4.42
2019-05-15T04:15:34.441Z,5.03
2019-05-15T04:18:00.673Z,4.60
2019-05-15T04:20:29.436Z,4.62
2019-05-15T04:22:54.134Z,5.30
2019-05-15T04:25:20.249Z,5.15
2019-05-15T04:27:46.082Z,4.30
2019-05-15T04:30:11.904Z,4.67
2019-05-15T04:32:39.911Z,4.80
2019-05-15T04:35:08.948Z,4.60
2019-05-15T04:37:34.032Z,4.45
2019-05-15T04:39:59.982Z,4.60
2019-05-15T04:42:25.816Z,4.37
2019-05-15T04:44:51.662Z,4.30
2019-05-15T04:47:19.216Z,4.67
2019-05-15T04:49:45.257Z,4.00
2019-05-15T04:52:11.323Z,3.75
2019-05-15T04:54:40.249Z,3.67
2019-05-15T04:57:05.023Z,3.55
2019-05-15T04:59:31.115Z,3.50
2019-05-15T05:02:12.994Z,3.02
2019-05-15T05:04:24.890Z,2.15
2019-05-15T05:06:50.871Z,2.80
2019-05-15T05:09:19.623Z,3.00
2019-05-15T05:11:44.328Z,2.95
2019-05-15T05:14:10.469Z,2.85
2019-05-15T05:16:39.314Z,2.83
2019-05-15T05:19:04.261Z,3.00
2019-05-15T05:21:30.353Z,2.80
2019-05-15T05:23:56.094Z,2.90
2019-05-15T05:26:21.959Z,2.45
2019-05-15T05:28:48.818Z,2.80
2019-05-15T05:31:14.921Z,2.92
2019-05-15T05:33:40.830Z,2.62
2019-05-15T05:36:07.999Z,2.70
2019-05-15T05:38:34.218Z,2.80
2019-05-15T05:41:00.345Z,2.42
2019-05-15T05:43:26.528Z,2.85
2019-05-15T05:45:52.702Z,2.60
2019-05-15T05:48:19.008Z,2.60
2019-05-15T05:50:45.092Z,2.20
2019-05-15T05:53:11.245Z,2.50
2019-05-15T05:55:38.442Z,2.40
2019-05-15T05:58:04.859Z,2.50
2019-05-15T06:00:32.199Z,2.83
2019-05-15T06:02:59.112Z,2.70
2019-05-15T06:05:25.005Z,3.10
2019-05-15T06:07:50.859Z,2.70
2019-05-15T06:10:18.252Z,3.20
2019-05-15T06:12:44.101Z,2.83
2019-05-15T06:15:10.313Z,2.37
2019-05-15T06:17:38.781Z,2.70
2019-05-15T06:20:04.032Z,2.90
2019-05-15T06:22:29.911Z,2.70
2019-05-15T06:24:57.869Z,2.67
2019-05-15T06:27:23.631Z,2.65
2019-05-15T06:29:49.762Z,2.70
2019-05-15T06:32:15.602Z,2.75
2019-05-15T06:34:41.457Z,2.40
2019-05-15T06:37:08.330Z,2.90
2019-05-15T06:39:34.247Z,2.33
2019-05-15T06:42:00.079Z,2.60
2019-05-15T06:44:27.960Z,2.58
2019-05-15T06:46:53.569Z,2.58
2019-05-15T06:49:19.655Z,3.33
2019-05-15T06:51:45.625Z,2.75
2019-05-15T06:54:11.530Z,2.70
2019-05-15T06:56:38.862Z,2.87
2019-05-15T06:59:04.852Z,3.17
2019-05-15T07:01:30.699Z,3.00
2019-05-15T07:03:58.851Z,2.85
2019-05-15T07:06:24.186Z,2.67
2019-05-15T07:08:50.052Z,2.80
2019-05-15T07:11:15.920Z,2.25
2019-05-15T07:13:41.760Z,2.40
2019-05-15T07:16:08.220Z,2.95
2019-05-15T07:18:34.406Z,2.70
2019-05-15T07:21:00.288Z,2.25
2019-05-15T07:23:28.098Z,2.00
2019-05-15T07:25:54.344Z,1.70
2019-05-15T07:28:20.486Z,2.10
2019-05-15T07:30:49.041Z,1.60
2019-05-15T07:33:14.483Z,1.60
2019-05-15T07:35:40.407Z,1.55
2019-05-15T07:38:07.964Z,1.47
2019-05-15T07:40:33.836Z,1.60
2019-05-15T07:42:59.950Z,1.37
2019-05-15T07:45:28.124Z,1.27
2019-05-15T07:47:53.551Z,1.55
2019-05-15T07:50:19.811Z,1.40
2019-05-15T07:52:48.426Z,1.67
2019-05-15T07:55:13.440Z,1.60
2019-05-15T07:57:39.831Z,1.52
2019-05-15T08:00:10.058Z,1.50
2019-05-15T08:02:37.895Z,1.32
2019-05-15T08:05:04.853Z,1.35
2019-05-15T08:07:30.723Z,1.80
2019-05-15T08:09:59.223Z,1.40
2019-05-15T08:12:24.478Z,1.35
2019-05-15T08:14:51.038Z,1.25
2019-05-15T08:17:19.134Z,1.25
2019-05-15T08:19:44.583Z,1.40
2019-05-15T08:22:10.485Z,1.32
2019-05-15T08:24:38.913Z,1.62
2019-05-15T08:27:04.210Z,1.20
2019-05-15T08:29:30.123Z,1.17
2019-05-15T08:31:58.759Z,1.32
2019-05-15T08:34:23.881Z,1.45
2019-05-15T08:36:50.015Z,1.20
2019-05-15T08:39:16.113Z,1.17
2019-05-15T08:41:41.978Z,1.10
2019-05-15T08:44:08.763Z,1.17
2019-05-15T08:46:34.828Z,1.30
2019-05-15T08:49:00.672Z,1.15
2019-05-15T08:51:28.380Z,0.90
2019-05-15T08:53:54.178Z,1.00
2019-05-15T08:56:20.015Z,1.00
2019-05-15T08:58:45.913Z,1.10
2019-05-15T09:01:11.775Z,1.20
2019-05-15T09:03:38.160Z,1.20
2019-05-15T09:06:04.293Z,1.07
2019-05-15T09:08:30.123Z,0.98
2019-05-15T09:10:55.950Z,1.10
2019-05-15T09:13:21.812Z,1.45
2019-05-15T09:15:48.282Z,1.25
2019-05-15T09:18:16.164Z,1.00
2019-05-15T09:20:42.071Z,1.20
2019-05-15T09:23:08.968Z,1.00
2019-05-15T09:25:35.056Z,1.02
2019-05-15T09:28:00.891Z,1.20
2019-05-15T09:30:28.609Z,1.07
2019-05-15T09:32:54.489Z,0.98
2019-05-15T09:35:20.577Z,1.10
2019-05-15T09:37:48.869Z,1.27
2019-05-15T09:40:14.673Z,1.20
2019-05-15T09:42:40.543Z,1.17
2019-05-15T09:45:08.721Z,1.20
2019-05-15T09:47:34.554Z,1.30
2019-05-15T09:50:00.717Z,1.10
2019-05-15T09:52:29.314Z,1.20
2019-05-15T09:54:54.437Z,1.12
2019-05-15T09:57:20.562Z,1.00
2019-05-15T09:59:48.773Z,1.05
2019-05-15T10:02:14.300Z,1.27
2019-05-15T10:04:40.213Z,1.25
2019-05-15T10:07:08.209Z,1.10
2019-05-15T10:09:33.922Z,1.10
2019-05-15T10:11:59.800Z,1.17
2019-05-15T10:14:25.625Z,1.40
2019-05-15T10:16:51.446Z,1.30
2019-05-15T10:19:18.564Z,1.42
2019-05-15T10:21:44.512Z,1.52
2019-05-15T10:24:10.371Z,1.20
2019-05-15T10:26:36.201Z,1.80
2019-05-15T10:29:02.030Z,1.70
2019-05-15T10:31:28.374Z,1.45
2019-05-15T10:33:54.252Z,1.50
2019-05-15T10:36:20.077Z,1.25
2019-05-15T10:38:48.617Z,1.35
2019-05-15T10:41:15.101Z,1.20
2019-05-15T10:43:45.676Z,1.60
2019-05-15T10:46:13.253Z,1.20
2019-05-15T10:48:38.557Z,1.35
2019-05-15T10:51:09.095Z,1.50
2019-05-15T10:53:32.056Z,1.57
2019-05-15T10:55:59.552Z,1.42
2019-05-15T10:58:25.807Z,1.60
2019-05-15T11:00:51.697Z,1.40
2019-05-15T11:03:19.949Z,2.00
2019-05-15T11:05:45.941Z,1.40
2019-05-15T11:08:12.140Z,1.77
2019-05-15T11:10:41.762Z,1.37
2019-05-15T11:13:08.809Z,1.52
2019-05-15T11:15:34.093Z,1.47
2019-05-15T11:17:59.913Z,1.22
2019-05-15T11:20:25.783Z,1.40
2019-05-15T11:22:51.610Z,1.30
2019-05-15T11:25:17.474Z,1.15
2019-05-15T11:27:43.595Z,1.40
2019-05-15T11:30:09.729Z,1.32
2019-05-15T11:32:38.513Z,1.45
2019-05-15T11:35:04.822Z,1.20
2019-05-15T11:37:30.703Z,1.27
2019-05-15T11:39:58.742Z,1.35
2019-05-15T11:42:24.258Z,1.40
2019-05-15T11:44:53.246Z,1.35
2019-05-15T11:47:18.527Z,1.37
2019-05-15T11:49:44.683Z,1.67
2019-05-15T11:52:10.543Z,1.50
2019-05-15T11:54:38.583Z,1.32
2019-05-15T11:57:04.037Z,1.17
2019-05-15T11:59:30.235Z,1.72
2019-05-15T12:01:58.078Z,2.37
2019-05-15T12:04:30.392Z,2.20
2019-05-15T12:06:59.692Z,1.50
2019-05-15T12:09:19.817Z,1.60
2019-05-15T12:11:45.671Z,1.55
2019-05-15T12:14:11.501Z,1.65
2019-05-15T12:16:39.930Z,1.60
2019-05-15T12:19:09.638Z,1.67
2019-05-15T12:21:33.406Z,1.60
2019-05-15T12:23:59.577Z,1.30
2019-05-15T12:26:28.865Z,1.90
2019-05-15T12:28:53.343Z,2.10
2019-05-15T12:31:24.409Z,1.20
2019-05-15T12:33:48.950Z,1.52
2019-05-15T12:36:14.461Z,1.40
2019-05-15T12:38:40.283Z,1.67
2019-05-15T13:00:48.910Z,1.10
2019-05-15T13:03:15.060Z,1.10
2019-05-15T13:05:40.935Z,1.00
2019-05-15T13:08:08.391Z,1.52
2019-05-15T13:10:34.637Z,1.22
2019-05-15T13:13:05.075Z,1.10
2019-05-15T13:15:28.447Z,1.40
2019-05-15T13:17:54.319Z,1.20
2019-05-15T13:20:20.165Z,1.20
2019-05-15T13:25:13.100Z,1.47
2019-05-15T13:27:39.075Z,1.60
2019-05-15T13:30:08.993Z,1.40
2019-05-15T13:32:35.117Z,1.30
2019-05-15T13:35:01.294Z,1.55
2019-05-15T13:37:30.585Z,1.40
2019-05-15T13:39:54.754Z,1.30
2019-05-15T13:42:20.878Z,1.07
2019-05-15T13:44:46.714Z,1.20
2019-05-15T13:47:12.832Z,1.45
2019-05-15T13:49:38.745Z,1.20
2019-05-15T13:52:04.582Z,1.27
2019-05-15T13:54:30.948Z,1.30
2019-05-15T13:56:58.236Z,1.45
2019-05-15T13:59:24.454Z,1.40
2019-05-15T14:01:50.316Z,1.30
2019-05-15T14:04:18.353Z,1.00
2019-05-15T14:06:44.079Z,1.32
2019-05-15T14:09:09.954Z,1.72
2019-05-15T14:11:35.777Z,1.10
2019-05-15T14:14:02.268Z,1.47
2019-05-15T14:16:28.347Z,1.17
2019-05-15T14:18:54.524Z,1.27
2019-05-15T14:21:20.307Z,1.10
2019-05-15T14:23:47.915Z,1.50
2019-05-15T14:26:22.205Z,1.77
2019-05-15T14:28:41.678Z,1.60
2019-05-15T14:31:09.755Z,1.52
2019-05-15T14:33:35.522Z,1.60
2019-05-15T14:36:01.388Z,1.32
2019-05-15T14:38:29.074Z,1.32
2019-05-15T14:40:54.994Z,1.40
2019-05-15T14:43:20.866Z,1.22
2019-05-15T14:45:48.049Z,1.30
2019-05-15T14:48:14.148Z,1.62
2019-05-15T14:50:40.545Z,1.35
2019-05-15T14:53:09.291Z,1.32
2019-05-15T14:55:34.950Z,1.32
2019-05-15T14:58:01.239Z,1.50
2019-05-15T15:00:33.249Z,1.60
2019-05-15T15:02:54.794Z,1.45
2019-05-15T15:05:22.692Z,1.40
2019-05-15T15:07:49.122Z,1.47
2019-05-15T15:10:15.109Z,1.37
2019-05-15T15:12:40.939Z,1.42
2019-05-15T15:15:09.930Z,1.77
2019-05-15T15:17:34.985Z,1.30
2019-05-15T15:20:00.823Z,1.22
2019-05-15T15:22:28.477Z,1.27
2019-05-15T15:24:54.301Z,1.57
2019-05-15T15:27:20.129Z,1.17
2019-05-15T15:29:48.303Z,1.40
2019-05-15T15:32:14.193Z,1.42
2019-05-15T15:34:40.275Z,1.50
2019-05-15T15:37:08.286Z,1.47
2019-05-15T15:39:34.082Z,1.50
2019-05-15T15:42:00.214Z,1.10
2019-05-15T15:44:28.170Z,1.30
2019-05-15T15:46:54.385Z,1.50
2019-05-15T15:49:20.485Z,1.45
2019-05-15T15:51:48.594Z,1.32
2019-05-15T15:54:13.982Z,1.30
2019-05-15T15:56:40.073Z,1.30
2019-05-15T15:59:08.590Z,1.57
2019-05-15T16:01:33.837Z,1.17
2019-05-15T16:03:59.986Z,1.50
2019-05-15T16:06:26.122Z,1.50
2019-05-15T16:08:55.775Z,1.20
2019-05-15T16:11:19.678Z,1.17
2019-05-15T16:13:46.492Z,1.52
2019-05-15T16:16:13.074Z,1.17
2019-05-15T16:18:38.908Z,1.02
2019-05-15T16:21:05.022Z,1.25
2019-05-15T16:23:31.149Z,1.40
2019-05-15T16:25:58.302Z,1.85
2019-05-15T16:28:25.349Z,1.17
2019-05-15T16:30:51.769Z,1.20
2019-05-15T16:33:18.412Z,1.52
2019-05-15T16:35:44.417Z,1.30
2019-05-15T16:38:10.294Z,1.27
2019-05-15T16:40:38.342Z,1.30
2019-05-15T16:43:04.292Z,1.32
2019-05-15T16:45:30.518Z,1.12
2019-05-15T16:47:58.611Z,1.27
2019-05-15T16:50:24.282Z,1.20
2019-05-15T16:52:50.116Z,1.40
2019-05-15T16:55:16.009Z,1.52
2019-05-15T16:57:42.151Z,1.17
2019-05-15T17:00:09.552Z,1.50
2019-05-15T17:02:35.978Z,1.35
2019-05-15T17:05:02.118Z,1.25
2019-05-15T17:07:29.012Z,1.50
2019-05-15T17:09:55.154Z,1.02
2019-05-15T17:12:21.018Z,1.47
2019-05-15T17:14:48.632Z,1.20
2019-05-15T17:17:14.619Z,1.10
2019-05-15T17:19:40.691Z,1.50
2019-05-15T17:22:09.459Z,1.00
2019-05-15T17:24:35.643Z,1.30
2019-05-15T17:27:02.306Z,1.17
2019-05-15T17:29:29.196Z,1.47
2019-05-15T17:31:55.101Z,1.50
2019-05-15T17:34:20.968Z,1.27
2019-05-15T17:36:48.851Z,1.42
2019-05-15T17:39:14.472Z,1.40
2019-05-15T17:41:40.342Z,1.12
2019-05-15T17:44:06.430Z,1.52
2019-05-15T17:46:32.271Z,1.30
2019-05-15T17:49:06.929Z,1.42
2019-05-15T17:51:27.687Z,1.25
2019-05-15T17:53:53.553Z,1.82
2019-05-15T17:56:19.661Z,1.60
2019-05-15T17:58:45.790Z,1.57
2019-05-15T18:01:11.699Z,1.67
2019-05-15T18:03:39.317Z,1.55
2019-05-15T18:06:05.433Z,1.50
2019-05-15T18:08:31.593Z,1.35
2019-05-15T18:10:58.707Z,1.50
2019-05-15T18:13:24.674Z,1.45
2019-05-15T18:15:50.547Z,1.52
2019-05-15T18:18:18.543Z,1.35
2019-05-15T18:20:44.421Z,1.50
2019-05-15T18:23:10.250Z,1.40
2019-05-15T18:25:38.189Z,1.70
2019-05-15T18:28:04.162Z,1.70
2019-05-15T18:30:30.233Z,1.52
2019-05-15T18:32:58.513Z,1.50
2019-05-15T18:35:24.070Z,1.80
2019-05-15T18:37:50.413Z,1.30
2019-05-15T18:40:18.767Z,1.35
2019-05-15T18:42:44.532Z,1.20
2019-05-15T18:45:10.367Z,1.60
2019-05-15T18:47:38.673Z,1.40
2019-05-15T18:50:08.499Z,1.85
2019-05-15T18:52:32.075Z,1.40
2019-05-15T18:54:58.688Z,1.27
2019-05-15T18:57:24.926Z,1.27
2019-05-15T18:59:51.058Z,1.57
2019-05-15T19:02:19.061Z,1.47
2019-05-15T19:04:44.813Z,1.80
2019-05-15T19:07:10.685Z,1.80
2019-05-15T19:09:38.527Z,1.52
2019-05-15T19:12:05.011Z,1.40
2019-05-15T19:14:30.987Z,1.87
2019-05-15T19:16:59.052Z,1.70
2019-05-15T19:19:24.698Z,1.52
2019-05-15T19:21:50.827Z,1.42
2019-05-15T19:24:18.488Z,1.30
2019-05-15T19:26:44.486Z,1.12
2019-05-15T19:29:10.358Z,1.57
2019-05-15T19:31:36.190Z,1.47
2019-05-15T19:34:02.050Z,1.52
2019-05-15T19:36:28.290Z,1.55
2019-05-15T19:38:54.154Z,1.40
2019-05-15T19:41:20.029Z,1.30
2019-05-15T19:43:48.306Z,1.50
2019-05-15T19:46:13.824Z,1.50
2019-05-15T19:48:40.626Z,1.50
2019-05-15T19:51:08.781Z,1.40
2019-05-15T19:53:34.351Z,1.52
2019-05-15T19:56:00.200Z,1.40
2019-05-15T19:58:28.470Z,1.42
2019-05-15T20:00:54.280Z,1.67
2019-05-15T20:03:20.375Z,1.57
2019-05-15T20:05:48.470Z,1.40
2019-05-15T20:08:13.917Z,1.30
2019-05-15T20:10:39.753Z,1.52
2019-05-15T20:13:06.124Z,1.50
2019-05-15T20:15:31.890Z,1.27
2019-05-15T20:17:57.736Z,1.70
2019-05-15T20:20:23.591Z,1.40
2019-05-15T20:22:49.844Z,1.52
2019-05-15T20:25:18.335Z,2.25
2019-05-15T20:27:43.905Z,1.70
2019-05-15T20:30:09.745Z,1.52
2019-05-15T20:32:35.703Z,1.52
2019-05-15T20:35:03.043Z,1.45
2019-05-15T20:37:29.041Z,1.40
2019-05-15T20:39:54.846Z,1.67
2019-05-15T20:42:20.833Z,1.98
2019-05-15T20:44:48.637Z,1.50
2019-05-15T20:47:14.987Z,1.57
2019-05-15T20:49:40.781Z,1.60
2019-05-15T20:52:06.893Z,1.50
2019-05-15T20:54:32.996Z,1.77
2019-05-15T20:56:58.891Z,2.40
2019-05-15T20:59:24.979Z,4.00
2019-05-15T21:01:51.147Z,2.50
2019-05-15T21:04:22.607Z,2.17
2019-05-15T21:06:45.252Z,2.40
2019-05-15T21:09:11.305Z,2.10
2019-05-15T21:11:39.537Z,2.35
2019-05-15T21:14:05.149Z,2.33
2019-05-15T21:16:31.438Z,2.33
2019-05-15T21:18:57.730Z,2.25
2019-05-15T21:21:25.201Z,2.33
2019-05-15T21:23:51.036Z,2.67
2019-05-15T21:26:18.750Z,2.40
2019-05-15T21:28:44.839Z,2.60
2019-05-15T21:31:10.766Z,3.12
2019-05-15T21:33:36.602Z,3.35
2019-05-15T21:36:02.474Z,2.62
2019-05-15T21:38:28.504Z,2.77
2019-05-15T21:40:54.622Z,2.45
2019-05-15T21:43:20.773Z,2.02
2019-05-15T21:45:48.779Z,2.47
2019-05-15T21:48:14.261Z,2.22
2019-05-15T21:50:40.357Z,2.35
2019-05-15T21:53:06.230Z,2.67
2019-05-15T21:55:32.775Z,2.70
2019-05-15T21:58:00.012Z,2.67
2019-05-15T22:00:29.626Z,3.42
2019-05-15T22:02:58.293Z,4.00
2019-05-15T22:05:23.761Z,3.55
2019-05-15T22:07:51.176Z,3.70
2019-05-15T22:10:19.321Z,3.72
2019-05-15T22:12:45.201Z,4.00
2019-05-15T22:15:11.522Z,3.02
2019-05-15T22:17:38.752Z,2.92
2019-05-15T22:20:04.885Z,2.70
2019-05-15T22:22:30.755Z,2.20
2019-05-15T22:24:56.590Z,2.27
2019-05-15T22:27:22.458Z,2.80
2019-05-15T22:29:48.302Z,2.70
2019-05-15T22:32:14.130Z,2.95
2019-05-15T22:34:39.998Z,2.80
2019-05-15T22:37:06.917Z,3.20
2019-05-15T22:39:33.710Z,3.00
2019-05-15T22:41:59.922Z,2.72
2019-05-15T22:44:28.010Z,2.85
2019-05-15T22:46:53.662Z,2.80
2019-05-15T22:49:19.526Z,3.05
2019-05-15T22:51:45.544Z,3.12
2019-05-15T22:54:11.438Z,3.00
2019-05-15T22:56:37.852Z,2.77
2019-05-15T22:59:03.695Z,2.95
2019-05-15T23:01:30.004Z,2.52
2019-05-15T23:03:58.232Z,2.70
2019-05-15T23:06:23.906Z,2.62
2019-05-15T23:08:50.030Z,3.08
2019-05-15T23:11:18.246Z,2.98
2019-05-15T23:13:43.890Z,3.08
2019-05-15T23:16:09.714Z,3.20
2019-05-15T23:18:35.539Z,2.92
2019-05-15T23:21:01.392Z,2.60
2019-05-15T23:23:28.598Z,2.72
2019-05-15T23:25:54.907Z,2.85
2019-05-15T23:28:20.775Z,2.75
2019-05-15T23:30:48.567Z,2.58
2019-05-15T23:33:14.299Z,2.80
2019-05-15T23:35:41.573Z,3.00
2019-05-15T23:38:08.462Z,2.98
2019-05-15T23:40:34.386Z,2.90
2019-05-15T23:43:00.223Z,2.90
2019-05-15T23:45:26.087Z,2.60
2019-05-15T23:47:52.161Z,3.08
2019-05-15T23:50:18.154Z,2.98
2019-05-15T23:52:44.023Z,2.92
2019-05-15T23:55:09.853Z,3.05
2019-05-15T23:57:35.689Z,3.35
